sensor_id;sensor_type;location;lat;lon;timestamp;P1;durP1;ratioP1;P2;durP2;ratioP2
74630;SDS011;63138;55.082;38.804;2024-01-11T00:00:45;14.60;;;8.52;;
74630;SDS011;63138;55.082;38.804;2024-01-11T00:03:11;13.23;;;9.02;;
74630;SDS011;63138;55.082;38.804;2024-01-11T00:05:36;12.75;;;9.05;;
74630;SDS011;63138;55.082;38.804;2024-01-11T00:08:03;15.63;;;8.20;;
74630;SDS011;63138;55.082;38.804;2024-01-11T00:10:30;14.40;;;9.60;;
74630;SDS011;63138;55.082;38.804;2024-01-11T00:12:56;13.43;;;8.57;;
74630;SDS011;63138;55.082;38.804;2024-01-11T00:15:22;17.35;;;10.35;;
74630;SDS011;63138;55.082;38.804;2024-01-11T00:17:48;13.60;;;9.35;;
74630;SDS011;63138;55.082;38.804;2024-01-11T00:20:14;17.00;;;10.20;;
74630;SDS011;63138;55.082;38.804;2024-01-11T00:22:40;16.57;;;9.53;;
74630;SDS011;63138;55.082;38.804;2024-01-11T00:25:06;15.25;;;9.00;;
74630;SDS011;63138;55.082;38.804;2024-01-11T00:27:39;15.95;;;9.77;;
74630;SDS011;63138;55.082;38.804;2024-01-11T00:30:05;19.67;;;8.83;;
74630;SDS011;63138;55.082;38.804;2024-01-11T00:32:32;14.60;;;8.82;;
74630;SDS011;63138;55.082;38.804;2024-01-11T00:34:58;20.40;;;11.02;;
74630;SDS011;63138;55.082;38.804;2024-01-11T00:37:24;35.33;;;11.57;;
74630;SDS011;63138;55.082;38.804;2024-01-11T00:39:51;25.85;;;11.73;;
74630;SDS011;63138;55.082;38.804;2024-01-11T00:42:17;16.85;;;10.02;;
74630;SDS011;63138;55.082;38.804;2024-01-11T00:44:43;15.75;;;9.02;;
74630;SDS011;63138;55.082;38.804;2024-01-11T00:47:10;19.65;;;10.75;;
74630;SDS011;63138;55.082;38.804;2024-01-11T00:49:36;20.90;;;9.67;;
74630;SDS011;63138;55.082;38.804;2024-01-11T00:52:03;13.80;;;8.27;;
74630;SDS011;63138;55.082;38.804;2024-01-11T00:57:20;17.13;;;10.75;;
74630;SDS011;63138;55.082;38.804;2024-01-11T00:59:46;19.40;;;11.63;;
74630;SDS011;63138;55.082;38.804;2024-01-11T01:02:13;15.88;;;9.88;;
74630;SDS011;63138;55.082;38.804;2024-01-11T01:07:59;14.15;;;8.93;;
74630;SDS011;63138;55.082;38.804;2024-01-11T01:10:26;13.80;;;8.68;;
74630;SDS011;63138;55.082;38.804;2024-01-11T01:12:53;27.23;;;7.63;;
74630;SDS011;63138;55.082;38.804;2024-01-11T01:15:20;14.27;;;7.50;;
74630;SDS011;63138;55.082;38.804;2024-01-11T01:17:46;14.48;;;8.18;;
74630;SDS011;63138;55.082;38.804;2024-01-11T01:20:12;27.20;;;8.88;;
74630;SDS011;63138;55.082;38.804;2024-01-11T01:22:38;13.65;;;8.05;;
74630;SDS011;63138;55.082;38.804;2024-01-11T01:25:04;12.30;;;6.77;;
74630;SDS011;63138;55.082;38.804;2024-01-11T01:27:30;12.43;;;7.93;;
74630;SDS011;63138;55.082;38.804;2024-01-11T01:29:56;14.32;;;8.73;;
74630;SDS011;63138;55.082;38.804;2024-01-11T01:32:22;10.43;;;6.33;;
74630;SDS011;63138;55.082;38.804;2024-01-11T01:34:48;14.13;;;7.60;;
74630;SDS011;63138;55.082;38.804;2024-01-11T01:37:14;11.65;;;7.50;;
74630;SDS011;63138;55.082;38.804;2024-01-11T01:39:45;13.88;;;8.30;;
74630;SDS011;63138;55.082;38.804;2024-01-11T01:42:12;17.60;;;9.63;;
74630;SDS011;63138;55.082;38.804;2024-01-11T01:45:03;11.70;;;7.70;;
74630;SDS011;63138;55.082;38.804;2024-01-11T01:47:30;14.80;;;8.20;;
74630;SDS011;63138;55.082;38.804;2024-01-11T01:49:56;19.75;;;9.30;;
74630;SDS011;63138;55.082;38.804;2024-01-11T01:52:22;15.13;;;7.72;;
74630;SDS011;63138;55.082;38.804;2024-01-11T01:54:49;9.33;;;6.50;;
74630;SDS011;63138;55.082;38.804;2024-01-11T01:57:15;11.82;;;7.38;;
74630;SDS011;63138;55.082;38.804;2024-01-11T01:59:43;12.48;;;7.88;;
74630;SDS011;63138;55.082;38.804;2024-01-11T02:02:15;11.25;;;6.85;;
74630;SDS011;63138;55.082;38.804;2024-01-11T02:04:47;10.68;;;6.32;;
74630;SDS011;63138;55.082;38.804;2024-01-11T02:07:13;12.70;;;7.60;;
74630;SDS011;63138;55.082;38.804;2024-01-11T02:09:40;10.65;;;8.45;;
74630;SDS011;63138;55.082;38.804;2024-01-11T02:12:06;12.57;;;7.25;;
74630;SDS011;63138;55.082;38.804;2024-01-11T02:14:37;13.93;;;7.88;;
74630;SDS011;63138;55.082;38.804;2024-01-11T02:17:03;16.13;;;8.23;;
74630;SDS011;63138;55.082;38.804;2024-01-11T02:19:49;12.20;;;7.77;;
74630;SDS011;63138;55.082;38.804;2024-01-11T02:22:24;14.70;;;7.00;;
74630;SDS011;63138;55.082;38.804;2024-01-11T02:24:55;11.25;;;6.97;;
74630;SDS011;63138;55.082;38.804;2024-01-11T02:27:23;10.75;;;7.82;;
74630;SDS011;63138;55.082;38.804;2024-01-11T02:29:50;13.85;;;7.85;;
74630;SDS011;63138;55.082;38.804;2024-01-11T02:32:16;14.43;;;7.67;;
74630;SDS011;63138;55.082;38.804;2024-01-11T02:34:42;10.95;;;7.38;;
74630;SDS011;63138;55.082;38.804;2024-01-11T02:37:08;10.88;;;6.88;;
74630;SDS011;63138;55.082;38.804;2024-01-11T02:39:34;26.00;;;8.75;;
74630;SDS011;63138;55.082;38.804;2024-01-11T02:42:00;8.87;;;7.20;;
74630;SDS011;63138;55.082;38.804;2024-01-11T02:44:27;12.88;;;7.05;;
74630;SDS011;63138;55.082;38.804;2024-01-11T02:46:54;9.18;;;4.93;;
74630;SDS011;63138;55.082;38.804;2024-01-11T02:49:45;10.27;;;5.72;;
74630;SDS011;63138;55.082;38.804;2024-01-11T02:52:12;8.27;;;6.97;;
74630;SDS011;63138;55.082;38.804;2024-01-11T02:54:38;8.40;;;6.00;;
74630;SDS011;63138;55.082;38.804;2024-01-11T02:57:04;7.57;;;5.13;;
74630;SDS011;63138;55.082;38.804;2024-01-11T02:59:30;11.90;;;6.38;;
74630;SDS011;63138;55.082;38.804;2024-01-11T03:01:56;5.85;;;4.65;;
74630;SDS011;63138;55.082;38.804;2024-01-11T03:04:23;8.23;;;4.77;;
74630;SDS011;63138;55.082;38.804;2024-01-11T03:06:51;10.38;;;6.50;;
74630;SDS011;63138;55.082;38.804;2024-01-11T03:09:17;8.85;;;5.75;;
74630;SDS011;63138;55.082;38.804;2024-01-11T03:11:43;7.10;;;5.30;;
74630;SDS011;63138;55.082;38.804;2024-01-11T03:14:09;11.73;;;5.90;;
74630;SDS011;63138;55.082;38.804;2024-01-11T03:16:35;9.57;;;5.82;;
74630;SDS011;63138;55.082;38.804;2024-01-11T03:19:02;8.88;;;5.35;;
74630;SDS011;63138;55.082;38.804;2024-01-11T03:21:27;7.33;;;5.33;;
74630;SDS011;63138;55.082;38.804;2024-01-11T03:23:53;10.40;;;6.05;;
74630;SDS011;63138;55.082;38.804;2024-01-11T03:26:19;8.90;;;5.72;;
74630;SDS011;63138;55.082;38.804;2024-01-11T03:28:45;10.80;;;6.13;;
74630;SDS011;63138;55.082;38.804;2024-01-11T03:31:11;7.67;;;5.17;;
74630;SDS011;63138;55.082;38.804;2024-01-11T03:33:37;9.15;;;5.30;;
74630;SDS011;63138;55.082;38.804;2024-01-11T03:36:07;11.40;;;5.53;;
74630;SDS011;63138;55.082;38.804;2024-01-11T03:38:34;8.65;;;4.93;;
74630;SDS011;63138;55.082;38.804;2024-01-11T03:41:00;10.73;;;6.53;;
74630;SDS011;63138;55.082;38.804;2024-01-11T03:43:26;10.68;;;6.18;;
74630;SDS011;63138;55.082;38.804;2024-01-11T03:45:53;9.40;;;5.90;;
74630;SDS011;63138;55.082;38.804;2024-01-11T03:48:19;8.07;;;5.75;;
74630;SDS011;63138;55.082;38.804;2024-01-11T03:50:45;8.27;;;6.28;;
74630;SDS011;63138;55.082;38.804;2024-01-11T03:53:11;8.27;;;5.17;;
74630;SDS011;63138;55.082;38.804;2024-01-11T03:55:37;10.70;;;5.22;;
74630;SDS011;63138;55.082;38.804;2024-01-11T03:58:04;8.93;;;5.00;;
74630;SDS011;63138;55.082;38.804;2024-01-11T04:00:30;8.23;;;4.55;;
74630;SDS011;63138;55.082;38.804;2024-01-11T04:03:07;8.00;;;5.27;;
74630;SDS011;63138;55.082;38.804;2024-01-11T04:05:33;4.70;;;4.03;;
74630;SDS011;63138;55.082;38.804;2024-01-11T04:08:02;6.07;;;4.28;;
74630;SDS011;63138;55.082;38.804;2024-01-11T04:10:29;7.13;;;4.45;;
74630;SDS011;63138;55.082;38.804;2024-01-11T04:12:55;7.93;;;5.07;;
74630;SDS011;63138;55.082;38.804;2024-01-11T04:15:24;6.25;;;4.68;;
74630;SDS011;63138;55.082;38.804;2024-01-11T04:17:50;8.68;;;4.55;;
74630;SDS011;63138;55.082;38.804;2024-01-11T04:20:16;7.07;;;3.60;;
74630;SDS011;63138;55.082;38.804;2024-01-11T04:22:42;8.73;;;4.80;;
74630;SDS011;63138;55.082;38.804;2024-01-11T04:25:08;7.40;;;4.15;;
74630;SDS011;63138;55.082;38.804;2024-01-11T04:27:34;6.55;;;4.50;;
74630;SDS011;63138;55.082;38.804;2024-01-11T04:30:00;6.40;;;4.07;;
74630;SDS011;63138;55.082;38.804;2024-01-11T04:32:26;6.88;;;4.47;;
74630;SDS011;63138;55.082;38.804;2024-01-11T04:34:53;6.43;;;4.30;;
74630;SDS011;63138;55.082;38.804;2024-01-11T04:37:19;6.10;;;4.28;;
74630;SDS011;63138;55.082;38.804;2024-01-11T04:39:45;6.82;;;4.57;;
74630;SDS011;63138;55.082;38.804;2024-01-11T04:42:11;6.27;;;4.03;;
74630;SDS011;63138;55.082;38.804;2024-01-11T04:44:37;6.47;;;3.28;;
74630;SDS011;63138;55.082;38.804;2024-01-11T04:47:03;4.95;;;4.00;;
74630;SDS011;63138;55.082;38.804;2024-01-11T04:49:29;5.90;;;3.63;;
74630;SDS011;63138;55.082;38.804;2024-01-11T04:51:55;5.00;;;2.90;;
74630;SDS011;63138;55.082;38.804;2024-01-11T04:54:20;6.32;;;4.25;;
74630;SDS011;63138;55.082;38.804;2024-01-11T04:56:47;4.25;;;3.42;;
74630;SDS011;63138;55.082;38.804;2024-01-11T04:59:13;5.43;;;3.80;;
74630;SDS011;63138;55.082;38.804;2024-01-11T05:01:39;6.47;;;4.38;;
74630;SDS011;63138;55.082;38.804;2024-01-11T05:04:06;5.82;;;3.83;;
74630;SDS011;63138;55.082;38.804;2024-01-11T05:06:32;5.25;;;3.80;;
74630;SDS011;63138;55.082;38.804;2024-01-11T05:08:58;6.40;;;3.50;;
74630;SDS011;63138;55.082;38.804;2024-01-11T05:11:24;5.07;;;2.72;;
74630;SDS011;63138;55.082;38.804;2024-01-11T05:13:50;4.95;;;2.90;;
74630;SDS011;63138;55.082;38.804;2024-01-11T05:16:18;5.30;;;3.20;;
74630;SDS011;63138;55.082;38.804;2024-01-11T05:18:44;4.67;;;3.40;;
74630;SDS011;63138;55.082;38.804;2024-01-11T05:21:10;3.58;;;2.70;;
74630;SDS011;63138;55.082;38.804;2024-01-11T05:23:36;5.95;;;2.78;;
74630;SDS011;63138;55.082;38.804;2024-01-11T05:26:20;3.40;;;2.55;;
74630;SDS011;63138;55.082;38.804;2024-01-11T05:28:46;3.97;;;2.72;;
74630;SDS011;63138;55.082;38.804;2024-01-11T05:31:13;3.63;;;2.65;;
74630;SDS011;63138;55.082;38.804;2024-01-11T05:33:40;6.68;;;2.38;;
74630;SDS011;63138;55.082;38.804;2024-01-11T05:36:07;4.43;;;2.58;;
74630;SDS011;63138;55.082;38.804;2024-01-11T05:38:33;4.00;;;2.57;;
74630;SDS011;63138;55.082;38.804;2024-01-11T05:41:01;4.10;;;2.60;;
74630;SDS011;63138;55.082;38.804;2024-01-11T05:43:27;4.20;;;2.88;;
74630;SDS011;63138;55.082;38.804;2024-01-11T05:45:53;3.90;;;2.63;;
74630;SDS011;63138;55.082;38.804;2024-01-11T05:48:20;3.95;;;2.60;;
74630;SDS011;63138;55.082;38.804;2024-01-11T05:50:47;4.33;;;2.20;;
74630;SDS011;63138;55.082;38.804;2024-01-11T05:53:13;4.13;;;2.50;;
74630;SDS011;63138;55.082;38.804;2024-01-11T05:55:39;4.07;;;2.55;;
74630;SDS011;63138;55.082;38.804;2024-01-11T05:58:05;4.25;;;2.67;;
74630;SDS011;63138;55.082;38.804;2024-01-11T06:00:32;3.72;;;2.75;;
74630;SDS011;63138;55.082;38.804;2024-01-11T06:02:58;3.95;;;2.72;;
74630;SDS011;63138;55.082;38.804;2024-01-11T06:05:24;3.72;;;2.58;;
74630;SDS011;63138;55.082;38.804;2024-01-11T06:07:52;3.28;;;2.30;;
74630;SDS011;63138;55.082;38.804;2024-01-11T06:10:18;3.07;;;2.00;;
74630;SDS011;63138;55.082;38.804;2024-01-11T06:12:45;3.40;;;2.30;;
74630;SDS011;63138;55.082;38.804;2024-01-11T06:15:11;3.75;;;2.85;;
74630;SDS011;63138;55.082;38.804;2024-01-11T06:17:37;3.78;;;2.38;;
74630;SDS011;63138;55.082;38.804;2024-01-11T06:20:03;3.95;;;2.75;;
74630;SDS011;63138;55.082;38.804;2024-01-11T06:22:31;5.45;;;2.80;;
74630;SDS011;63138;55.082;38.804;2024-01-11T06:24:58;3.78;;;2.60;;
74630;SDS011;63138;55.082;38.804;2024-01-11T06:27:25;3.45;;;2.67;;
74630;SDS011;63138;55.082;38.804;2024-01-11T06:29:52;3.50;;;2.72;;
74630;SDS011;63138;55.082;38.804;2024-01-11T06:32:18;7.95;;;2.72;;
74630;SDS011;63138;55.082;38.804;2024-01-11T06:34:45;3.65;;;2.47;;
74630;SDS011;63138;55.082;38.804;2024-01-11T06:37:13;3.40;;;2.38;;
74630;SDS011;63138;55.082;38.804;2024-01-11T06:39:38;4.50;;;2.65;;
74630;SDS011;63138;55.082;38.804;2024-01-11T06:42:05;3.13;;;2.50;;
74630;SDS011;63138;55.082;38.804;2024-01-11T06:44:31;2.70;;;2.30;;
74630;SDS011;63138;55.082;38.804;2024-01-11T06:46:57;2.85;;;2.55;;
74630;SDS011;63138;55.082;38.804;2024-01-11T06:49:23;3.03;;;2.22;;
74630;SDS011;63138;55.082;38.804;2024-01-11T06:51:49;3.58;;;2.22;;
74630;SDS011;63138;55.082;38.804;2024-01-11T06:54:15;2.90;;;2.20;;
74630;SDS011;63138;55.082;38.804;2024-01-11T06:56:41;4.07;;;2.10;;
74630;SDS011;63138;55.082;38.804;2024-01-11T06:59:07;3.78;;;2.38;;
74630;SDS011;63138;55.082;38.804;2024-01-11T07:01:33;3.28;;;2.40;;
74630;SDS011;63138;55.082;38.804;2024-01-11T07:03:59;3.03;;;2.40;;
74630;SDS011;63138;55.082;38.804;2024-01-11T07:06:25;3.10;;;2.50;;
74630;SDS011;63138;55.082;38.804;2024-01-11T07:08:51;2.90;;;2.10;;
74630;SDS011;63138;55.082;38.804;2024-01-11T07:11:18;3.08;;;2.60;;
74630;SDS011;63138;55.082;38.804;2024-01-11T07:13:44;2.80;;;2.17;;
74630;SDS011;63138;55.082;38.804;2024-01-11T07:16:10;4.47;;;2.72;;
74630;SDS011;63138;55.082;38.804;2024-01-11T07:18:36;3.25;;;2.72;;
74630;SDS011;63138;55.082;38.804;2024-01-11T07:21:02;3.28;;;2.33;;
74630;SDS011;63138;55.082;38.804;2024-01-11T07:23:30;3.17;;;2.22;;
74630;SDS011;63138;55.082;38.804;2024-01-11T07:25:56;2.97;;;2.40;;
74630;SDS011;63138;55.082;38.804;2024-01-11T07:28:22;3.53;;;2.88;;
74630;SDS011;63138;55.082;38.804;2024-01-11T07:30:52;2.97;;;2.67;;
74630;SDS011;63138;55.082;38.804;2024-01-11T07:33:19;3.22;;;2.80;;
74630;SDS011;63138;55.082;38.804;2024-01-11T07:35:46;3.47;;;2.45;;
74630;SDS011;63138;55.082;38.804;2024-01-11T07:38:13;3.97;;;2.75;;
74630;SDS011;63138;55.082;38.804;2024-01-11T07:40:39;3.40;;;2.50;;
74630;SDS011;63138;55.082;38.804;2024-01-11T07:43:05;2.72;;;2.42;;
74630;SDS011;63138;55.082;38.804;2024-01-11T07:45:31;3.13;;;2.60;;
74630;SDS011;63138;55.082;38.804;2024-01-11T07:47:57;3.08;;;2.50;;
74630;SDS011;63138;55.082;38.804;2024-01-11T07:50:26;3.35;;;2.70;;
74630;SDS011;63138;55.082;38.804;2024-01-11T07:52:53;2.70;;;2.22;;
74630;SDS011;63138;55.082;38.804;2024-01-11T07:55:20;2.70;;;2.30;;
74630;SDS011;63138;55.082;38.804;2024-01-11T07:57:49;2.92;;;2.25;;
74630;SDS011;63138;55.082;38.804;2024-01-11T08:00:15;2.50;;;2.10;;
74630;SDS011;63138;55.082;38.804;2024-01-11T08:02:41;2.90;;;2.42;;
74630;SDS011;63138;55.082;38.804;2024-01-11T08:05:07;2.70;;;2.30;;
74630;SDS011;63138;55.082;38.804;2024-01-11T08:07:34;2.92;;;2.20;;
74630;SDS011;63138;55.082;38.804;2024-01-11T08:10:00;3.05;;;2.40;;
74630;SDS011;63138;55.082;38.804;2024-01-11T08:12:28;2.50;;;2.00;;
74630;SDS011;63138;55.082;38.804;2024-01-11T08:14:55;2.97;;;2.42;;
74630;SDS011;63138;55.082;38.804;2024-01-11T08:17:21;3.50;;;2.47;;
74630;SDS011;63138;55.082;38.804;2024-01-11T08:19:48;4.30;;;2.55;;
74630;SDS011;63138;55.082;38.804;2024-01-11T08:22:14;3.40;;;2.83;;
74630;SDS011;63138;55.082;38.804;2024-01-11T08:24:41;3.17;;;2.40;;
74630;SDS011;63138;55.082;38.804;2024-01-11T08:27:07;3.10;;;2.60;;
74630;SDS011;63138;55.082;38.804;2024-01-11T08:29:58;2.72;;;2.50;;
74630;SDS011;63138;55.082;38.804;2024-01-11T08:32:53;3.13;;;2.80;;
74630;SDS011;63138;55.082;38.804;2024-01-11T08:35:19;3.47;;;2.60;;
74630;SDS011;63138;55.082;38.804;2024-01-11T08:37:45;2.80;;;2.50;;
74630;SDS011;63138;55.082;38.804;2024-01-11T08:40:12;2.47;;;2.28;;
74630;SDS011;63138;55.082;38.804;2024-01-11T08:42:38;2.78;;;2.40;;
74630;SDS011;63138;55.082;38.804;2024-01-11T08:45:08;2.92;;;2.30;;
74630;SDS011;63138;55.082;38.804;2024-01-11T08:47:34;2.90;;;2.60;;
74630;SDS011;63138;55.082;38.804;2024-01-11T08:50:00;2.90;;;2.60;;
74630;SDS011;63138;55.082;38.804;2024-01-11T08:52:27;2.60;;;2.10;;
74630;SDS011;63138;55.082;38.804;2024-01-11T08:54:53;2.80;;;2.40;;
74630;SDS011;63138;55.082;38.804;2024-01-11T08:57:20;3.67;;;2.38;;
74630;SDS011;63138;55.082;38.804;2024-01-11T08:59:46;2.90;;;2.60;;
74630;SDS011;63138;55.082;38.804;2024-01-11T09:02:12;3.30;;;2.17;;
74630;SDS011;63138;55.082;38.804;2024-01-11T09:04:38;2.83;;;1.80;;
74630;SDS011;63138;55.082;38.804;2024-01-11T09:07:04;2.90;;;2.40;;
74630;SDS011;63138;55.082;38.804;2024-01-11T09:09:30;2.75;;;2.20;;
74630;SDS011;63138;55.082;38.804;2024-01-11T09:11:57;2.47;;;2.03;;
74630;SDS011;63138;55.082;38.804;2024-01-11T09:14:23;2.58;;;2.30;;
74630;SDS011;63138;55.082;38.804;2024-01-11T09:16:49;2.70;;;2.50;;
74630;SDS011;63138;55.082;38.804;2024-01-11T09:19:20;3.45;;;2.20;;
74630;SDS011;63138;55.082;38.804;2024-01-11T09:21:46;2.83;;;2.40;;
74630;SDS011;63138;55.082;38.804;2024-01-11T09:24:12;2.80;;;2.30;;
74630;SDS011;63138;55.082;38.804;2024-01-11T09:26:38;3.00;;;2.40;;
74630;SDS011;63138;55.082;38.804;2024-01-11T09:29:04;2.55;;;2.17;;
74630;SDS011;63138;55.082;38.804;2024-01-11T09:31:30;2.70;;;2.17;;
74630;SDS011;63138;55.082;38.804;2024-01-11T09:33:58;3.13;;;2.60;;
74630;SDS011;63138;55.082;38.804;2024-01-11T09:36:24;2.72;;;2.25;;
74630;SDS011;63138;55.082;38.804;2024-01-11T09:38:51;2.70;;;2.35;;
74630;SDS011;63138;55.082;38.804;2024-01-11T09:41:17;2.70;;;2.20;;
74630;SDS011;63138;55.082;38.804;2024-01-11T09:43:43;2.72;;;2.40;;
74630;SDS011;63138;55.082;38.804;2024-01-11T09:46:11;2.70;;;2.00;;
74630;SDS011;63138;55.082;38.804;2024-01-11T09:48:39;2.75;;;2.47;;
74630;SDS011;63138;55.082;38.804;2024-01-11T09:51:13;3.00;;;2.10;;
74630;SDS011;63138;55.082;38.804;2024-01-11T09:54:00;2.50;;;2.20;;
74630;SDS011;63138;55.082;38.804;2024-01-11T09:56:29;2.85;;;2.30;;
74630;SDS011;63138;55.082;38.804;2024-01-11T09:58:54;3.00;;;2.70;;
74630;SDS011;63138;55.082;38.804;2024-01-11T10:01:21;2.90;;;2.40;;
74630;SDS011;63138;55.082;38.804;2024-01-11T10:03:49;3.28;;;2.60;;
74630;SDS011;63138;55.082;38.804;2024-01-11T10:06:15;3.10;;;2.80;;
74630;SDS011;63138;55.082;38.804;2024-01-11T10:09:15;4.30;;;2.55;;
74630;SDS011;63138;55.082;38.804;2024-01-11T10:11:42;3.10;;;2.53;;
74630;SDS011;63138;55.082;38.804;2024-01-11T10:14:13;3.10;;;2.80;;
74630;SDS011;63138;55.082;38.804;2024-01-11T10:16:41;3.20;;;2.90;;
74630;SDS011;63138;55.082;38.804;2024-01-11T10:19:09;3.50;;;2.50;;
74630;SDS011;63138;55.082;38.804;2024-01-11T10:21:39;2.60;;;2.17;;
74630;SDS011;63138;55.082;38.804;2024-01-11T10:24:05;2.83;;;2.50;;
74630;SDS011;63138;55.082;38.804;2024-01-11T10:26:32;3.30;;;2.50;;
74630;SDS011;63138;55.082;38.804;2024-01-11T10:29:01;2.65;;;2.42;;
74630;SDS011;63138;55.082;38.804;2024-01-11T10:31:28;3.83;;;2.22;;
74630;SDS011;63138;55.082;38.804;2024-01-11T10:33:54;4.03;;;2.75;;
74630;SDS011;63138;55.082;38.804;2024-01-11T10:36:20;39.53;;;4.23;;
74630;SDS011;63138;55.082;38.804;2024-01-11T10:38:47;10.82;;;3.67;;
74630;SDS011;63138;55.082;38.804;2024-01-11T10:41:16;6.28;;;3.50;;
74630;SDS011;63138;55.082;38.804;2024-01-11T10:43:45;6.50;;;3.40;;
74630;SDS011;63138;55.082;38.804;2024-01-11T10:46:13;5.18;;;3.63;;
74630;SDS011;63138;55.082;38.804;2024-01-11T10:48:42;11.85;;;4.75;;
74630;SDS011;63138;55.082;38.804;2024-01-11T10:51:09;8.82;;;4.20;;
74630;SDS011;63138;55.082;38.804;2024-01-11T10:53:44;17.77;;;5.68;;
74630;SDS011;63138;55.082;38.804;2024-01-11T10:56:12;15.25;;;6.28;;
74630;SDS011;63138;55.082;38.804;2024-01-11T10:58:43;10.63;;;4.93;;
74630;SDS011;63138;55.082;38.804;2024-01-11T11:01:10;3.38;;;2.30;;
74630;SDS011;63138;55.082;38.804;2024-01-11T11:03:37;3.65;;;2.85;;
74630;SDS011;63138;55.082;38.804;2024-01-11T11:06:05;4.05;;;3.05;;
74630;SDS011;63138;55.082;38.804;2024-01-11T11:09:00;4.78;;;2.50;;
74630;SDS011;63138;55.082;38.804;2024-01-11T11:11:30;6.35;;;3.03;;
74630;SDS011;63138;55.082;38.804;2024-01-11T11:14:00;3.50;;;2.53;;
74630;SDS011;63138;55.082;38.804;2024-01-11T11:16:27;3.10;;;2.80;;
74630;SDS011;63138;55.082;38.804;2024-01-11T11:18:56;3.72;;;2.60;;
74630;SDS011;63138;55.082;38.804;2024-01-11T11:21:22;6.13;;;3.40;;
74630;SDS011;63138;55.082;38.804;2024-01-11T11:23:50;3.60;;;2.75;;
74630;SDS011;63138;55.082;38.804;2024-01-11T11:26:17;4.77;;;2.77;;
74630;SDS011;63138;55.082;38.804;2024-01-11T11:28:43;3.60;;;3.17;;
74630;SDS011;63138;55.082;38.804;2024-01-11T11:31:13;4.32;;;2.70;;
74630;SDS011;63138;55.082;38.804;2024-01-11T11:34:00;3.97;;;2.28;;
74630;SDS011;63138;55.082;38.804;2024-01-11T11:36:29;3.08;;;2.10;;
74630;SDS011;63138;55.082;38.804;2024-01-11T11:38:59;2.67;;;1.87;;
74630;SDS011;63138;55.082;38.804;2024-01-11T11:41:26;4.88;;;2.65;;
74630;SDS011;63138;55.082;38.804;2024-01-11T11:43:53;4.32;;;3.08;;
74630;SDS011;63138;55.082;38.804;2024-01-11T11:46:19;5.53;;;3.03;;
74630;SDS011;63138;55.082;38.804;2024-01-11T11:51:14;3.70;;;2.30;;
74630;SDS011;63138;55.082;38.804;2024-01-11T11:53:42;4.50;;;2.53;;
74630;SDS011;63138;55.082;38.804;2024-01-11T11:56:09;4.40;;;2.47;;
74630;SDS011;63138;55.082;38.804;2024-01-11T11:58:39;3.35;;;2.53;;
74630;SDS011;63138;55.082;38.804;2024-01-11T12:01:08;3.72;;;2.78;;
74630;SDS011;63138;55.082;38.804;2024-01-11T12:03:36;4.10;;;2.77;;
74630;SDS011;63138;55.082;38.804;2024-01-11T12:06:06;3.03;;;2.15;;
74630;SDS011;63138;55.082;38.804;2024-01-11T12:08:38;3.30;;;2.65;;
74630;SDS011;63138;55.082;38.804;2024-01-11T12:11:07;4.38;;;2.72;;
74630;SDS011;63138;55.082;38.804;2024-01-11T12:13:34;4.95;;;3.13;;
74630;SDS011;63138;55.082;38.804;2024-01-11T12:16:02;3.83;;;2.63;;
74630;SDS011;63138;55.082;38.804;2024-01-11T12:18:28;7.85;;;3.45;;
74630;SDS011;63138;55.082;38.804;2024-01-11T12:20:55;4.63;;;3.20;;
74630;SDS011;63138;55.082;38.804;2024-01-11T12:23:21;13.07;;;6.25;;
74630;SDS011;63138;55.082;38.804;2024-01-11T12:25:48;8.60;;;5.17;;
74630;SDS011;63138;55.082;38.804;2024-01-11T12:28:15;6.03;;;4.72;;
74630;SDS011;63138;55.082;38.804;2024-01-11T12:30:42;7.22;;;4.57;;
74630;SDS011;63138;55.082;38.804;2024-01-11T12:33:08;5.53;;;4.00;;
74630;SDS011;63138;55.082;38.804;2024-01-11T12:35:36;4.38;;;3.45;;
74630;SDS011;63138;55.082;38.804;2024-01-11T12:38:03;4.50;;;3.50;;
74630;SDS011;63138;55.082;38.804;2024-01-11T12:40:37;4.85;;;3.22;;
74630;SDS011;63138;55.082;38.804;2024-01-11T12:43:04;6.72;;;2.85;;
74630;SDS011;63138;55.082;38.804;2024-01-11T12:45:31;3.63;;;2.80;;
74630;SDS011;63138;55.082;38.804;2024-01-11T12:47:59;3.30;;;2.92;;
74630;SDS011;63138;55.082;38.804;2024-01-11T12:50:26;5.00;;;3.37;;
74630;SDS011;63138;55.082;38.804;2024-01-11T12:53:09;4.63;;;3.63;;
74630;SDS011;63138;55.082;38.804;2024-01-11T12:56:02;3.85;;;3.22;;
74630;SDS011;63138;55.082;38.804;2024-01-11T12:58:33;3.47;;;2.88;;
74630;SDS011;63138;55.082;38.804;2024-01-11T13:00:59;3.88;;;2.90;;
74630;SDS011;63138;55.082;38.804;2024-01-11T13:03:25;5.53;;;3.80;;
74630;SDS011;63138;55.082;38.804;2024-01-11T13:05:54;5.28;;;4.43;;
74630;SDS011;63138;55.082;38.804;2024-01-11T13:08:20;8.55;;;4.45;;
74630;SDS011;63138;55.082;38.804;2024-01-11T13:10:47;8.43;;;5.40;;
74630;SDS011;63138;55.082;38.804;2024-01-11T13:13:13;9.20;;;5.93;;
74630;SDS011;63138;55.082;38.804;2024-01-11T13:15:39;11.20;;;6.70;;
74630;SDS011;63138;55.082;38.804;2024-01-11T13:18:05;7.65;;;5.78;;
74630;SDS011;63138;55.082;38.804;2024-01-11T13:20:32;11.90;;;5.63;;
74630;SDS011;63138;55.082;38.804;2024-01-11T13:23:18;5.97;;;4.13;;
74630;SDS011;63138;55.082;38.804;2024-01-11T13:25:47;4.38;;;3.00;;
74630;SDS011;63138;55.082;38.804;2024-01-11T13:28:15;6.10;;;3.90;;
74630;SDS011;63138;55.082;38.804;2024-01-11T13:30:42;6.22;;;3.95;;
74630;SDS011;63138;55.082;38.804;2024-01-11T13:33:09;3.63;;;2.78;;
74630;SDS011;63138;55.082;38.804;2024-01-11T13:35:40;9.43;;;5.25;;
74630;SDS011;63138;55.082;38.804;2024-01-11T13:38:08;16.88;;;8.30;;
74630;SDS011;63138;55.082;38.804;2024-01-11T13:40:35;10.83;;;5.97;;
74630;SDS011;63138;55.082;38.804;2024-01-11T13:43:01;10.32;;;7.07;;
74630;SDS011;63138;55.082;38.804;2024-01-11T13:45:30;4.45;;;3.70;;
74630;SDS011;63138;55.082;38.804;2024-01-11T13:47:57;6.15;;;4.10;;
74630;SDS011;63138;55.082;38.804;2024-01-11T13:50:23;7.40;;;5.45;;
74630;SDS011;63138;55.082;38.804;2024-01-11T13:53:14;7.90;;;4.83;;
74630;SDS011;63138;55.082;38.804;2024-01-11T13:55:40;10.27;;;5.30;;
74630;SDS011;63138;55.082;38.804;2024-01-11T13:58:06;10.98;;;5.93;;
74630;SDS011;63138;55.082;38.804;2024-01-11T14:00:33;7.93;;;5.10;;
74630;SDS011;63138;55.082;38.804;2024-01-11T14:02:59;11.30;;;5.32;;
74630;SDS011;63138;55.082;38.804;2024-01-11T14:05:26;9.33;;;4.00;;
74630;SDS011;63138;55.082;38.804;2024-01-11T14:07:52;5.07;;;3.30;;
74630;SDS011;63138;55.082;38.804;2024-01-11T14:10:23;11.57;;;3.78;;
74630;SDS011;63138;55.082;38.804;2024-01-11T14:12:50;4.97;;;3.80;;
74630;SDS011;63138;55.082;38.804;2024-01-11T14:15:16;6.53;;;3.63;;
74630;SDS011;63138;55.082;38.804;2024-01-11T14:17:42;4.57;;;2.85;;
74630;SDS011;63138;55.082;38.804;2024-01-11T14:20:14;6.78;;;3.88;;
74630;SDS011;63138;55.082;38.804;2024-01-11T14:22:42;3.30;;;2.80;;
74630;SDS011;63138;55.082;38.804;2024-01-11T14:25:15;4.20;;;3.20;;
74630;SDS011;63138;55.082;38.804;2024-01-11T14:27:41;4.40;;;2.57;;
74630;SDS011;63138;55.082;38.804;2024-01-11T14:30:08;4.78;;;3.40;;
74630;SDS011;63138;55.082;38.804;2024-01-11T14:32:35;5.13;;;3.28;;
74630;SDS011;63138;55.082;38.804;2024-01-11T14:35:02;4.50;;;3.10;;
74630;SDS011;63138;55.082;38.804;2024-01-11T14:37:34;4.93;;;3.00;;
74630;SDS011;63138;55.082;38.804;2024-01-11T14:40:01;18.73;;;3.63;;
74630;SDS011;63138;55.082;38.804;2024-01-11T14:42:29;3.90;;;2.90;;